Time;durP1;ratioP1;P1;durP2;ratioP2;P2;SDS_P1;SDS_P2;PMS_P1;PMS_P2;Temp;Humidity;BMP_temperature;BMP_pressure;BME280_temperature;BME280_humidity;BME280_pressure;Samples;Min_cycle;Max_cycle;Signal;HPM_P1;HPM_P2
2023/01/10 00:01:50;;;;;;;4.20;1.00;;;25.90;58.60;;;;;;5048297;28;20188;-72
2023/01/10 00:04:17;;;;;;;1.93;0.80;;;26.20;57.90;;;;;;5049240;28;20180;-73
2023/01/10 00:06:45;;;;;;;2.77;0.80;;;26.10;55.30;;;;;;5046181;28;20180;-72
2023/01/10 00:09:12;;;;;;;2.60;0.97;;;26.10;54.60;;;;;;5049589;28;20179;-69
2023/01/10 00:14:27;;;;;;;4.50;1.00;;;26.00;56.00;;;;;;5053289;28;20190;-71
2023/01/10 00:16:56;;;;;;;2.67;0.97;;;26.20;55.80;;;;;;5051361;28;20548;-71
2023/01/10 00:19:23;;;;;;;4.53;1.03;;;26.30;56.10;;;;;;5049367;28;20184;-71
2023/01/10 00:21:50;;;;;;;2.17;0.90;;;26.20;55.10;;;;;;5053593;28;20650;-68
2023/01/10 00:24:18;;;;;;;4.97;1.10;;;26.20;55.70;;;;;;5051157;28;20273;-70
2023/01/10 00:26:49;;;;;;;3.37;1.00;;;26.20;56.40;;;;;;5054046;28;20202;-70
2023/01/10 00:29:28;;;;;;;1.83;0.90;;;26.10;58.00;;;;;;5053264;28;21411;-73
2023/01/10 00:31:56;;;;;;;2.43;0.87;;;26.20;56.20;;;;;;5051089;28;20281;-69
2023/01/10 00:34:23;;;;;;;2.57;0.97;;;25.60;57.90;;;;;;5051224;28;20234;-71
2023/01/10 00:36:51;;;;;;;4.23;1.20;;;26.00;57.60;;;;;;5051061;28;20172;-70
2023/01/10 00:39:19;;;;;;;2.57;0.97;;;26.30;56.20;;;;;;5051810;28;20175;-69
2023/01/10 00:44:32;;;;;;;3.80;1.10;;;26.60;54.70;;;;;;5055078;28;20202;-68
2023/01/10 00:47:00;;;;;;;4.00;1.00;;;26.80;54.10;;;;;;5057495;28;21422;-69
2023/01/10 00:49:27;;;;;;;2.37;1.00;;;26.90;54.50;;;;;;5083787;28;20183;-69
2023/01/10 00:51:58;;;;;;;6.13;0.80;;;27.10;54.40;;;;;;5056480;28;20216;-71
2023/01/10 00:54:25;;;;;;;2.23;1.10;;;26.80;53.30;;;;;;5055340;28;20184;-72
2023/01/10 00:56:53;;;;;;;2.43;0.80;;;26.80;53.10;;;;;;5055178;28;20230;-70
2023/01/10 00:59:20;;;;;;;2.00;1.00;;;26.90;53.30;;;;;;5050926;28;20188;-70
2023/01/10 01:01:48;;;;;;;3.27;1.07;;;27.00;51.20;;;;;;5054302;28;20219;-68
2023/01/10 01:04:16;;;;;;;3.77;1.23;;;27.30;52.40;;;;;;5055033;28;20187;-69
2023/01/10 01:06:45;;;;;;;2.83;0.83;;;27.40;52.50;;;;;;5055263;28;20183;-69
2023/01/10 01:09:13;;;;;;;2.63;1.00;;;27.20;53.80;;;;;;5053700;28;20275;-68
2023/01/10 01:11:40;;;;;;;3.67;1.10;;;26.90;55.50;;;;;;5055214;28;20213;-68
2023/01/10 01:14:08;;;;;;;3.80;0.90;;;27.30;54.70;;;;;;5054981;28;20227;-69
2023/01/10 01:16:35;;;;;;;2.07;0.80;;;26.70;55.30;;;;;;5055342;28;20190;-69
2023/01/10 01:19:02;;;;;;;3.20;1.00;;;26.80;56.20;;;;;;5054946;28;20241;-69
2023/01/10 01:21:30;;;;;;;3.27;0.90;;;26.90;55.20;;;;;;5054972;28;20594;-70
2023/01/10 01:23:57;;;;;;;2.60;0.80;;;27.40;54.80;;;;;;5054631;28;20180;-67
2023/01/10 01:26:25;;;;;;;4.80;1.03;;;27.20;55.10;;;;;;5055061;28;20309;-70
2023/01/10 01:28:52;;;;;;;1.53;0.93;;;27.20;55.60;;;;;;5051948;28;20199;-68
2023/01/10 01:31:20;;;;;;;5.17;1.20;;;27.60;52.90;;;;;;5054639;28;20258;-69
2023/01/10 01:33:47;;;;;;;5.07;1.10;;;27.50;53.90;;;;;;5054492;28;20187;-69
2023/01/10 01:36:15;;;;;;;3.60;1.10;;;27.20;55.60;;;;;;5054780;28;20180;-72
2023/01/10 01:38:42;;;;;;;4.83;1.30;;;27.20;56.20;;;;;;5054723;28;20707;-69
2023/01/10 01:44:12;;;;;;;6.00;1.20;;;27.20;56.40;;;;;;5054706;28;20190;-71
2023/01/10 01:46:40;;;;;;;10.47;1.43;;;27.80;55.70;;;;;;5053312;28;20184;-71
2023/01/10 01:49:15;;;;;;;4.07;1.07;;;27.40;55.10;;;;;;5054545;28;20184;-71
2023/01/10 01:51:44;;;;;;;4.30;1.20;;;26.90;57.20;;;;;;5050322;28;20298;-69
2023/01/10 01:54:13;;;;;;;6.37;1.30;;;26.80;57.30;;;;;;5053848;28;20727;-68
2023/01/10 01:57:04;;;;;;;4.80;1.10;;;26.80;58.00;;;;;;5054624;28;20607;-69
2023/01/10 01:59:39;;;;;;;3.63;1.00;;;26.70;58.00;;;;;;5051009;28;20180;-68
2023/01/10 02:02:24;;;;;;;3.93;1.30;;;26.60;58.40;;;;;;5054457;28;20713;-70
2023/01/10 02:04:55;;;;;;;5.27;1.20;;;26.90;57.60;;;;;;5053670;28;20201;-70
2023/01/10 02:07:25;;;;;;;3.80;1.00;;;27.20;57.00;;;;;;5050617;28;20192;-70
2023/01/10 02:10:02;;;;;;;3.33;1.20;;;27.00;58.00;;;;;;5053989;28;20646;-70
2023/01/10 02:12:31;;;;;;;3.83;1.00;;;27.00;58.90;;;;;;5054176;28;20278;-70
2023/01/10 02:14:59;;;;;;;3.50;0.90;;;27.40;57.00;;;;;;5046381;28;20259;-71
2023/01/10 02:17:27;;;;;;;3.37;1.10;;;27.30;55.60;;;;;;5053982;28;20282;-71
2023/01/10 02:19:57;;;;;;;4.10;1.17;;;26.80;57.70;;;;;;5054074;28;20180;-72
2023/01/10 02:22:27;;;;;;;4.67;1.07;;;26.90;57.70;;;;;;5053903;28;20912;-71
2023/01/10 02:25:25;;;;;;;7.53;1.20;;;27.50;55.90;;;;;;5053775;28;20722;-70
2023/01/10 02:27:55;;;;;;;5.83;1.10;;;27.80;53.90;;;;;;5053867;28;20187;-69
2023/01/10 02:30:40;;;;;;;4.60;0.93;;;28.10;52.50;;;;;;5053882;28;20188;-70
2023/01/10 02:33:30;;;;;;;2.27;0.90;;;27.80;52.60;;;;;;5052659;28;20712;-70
2023/01/10 02:35:57;;;;;;;3.47;0.87;;;27.40;53.30;;;;;;5050275;28;20233;-70
2023/01/10 02:38:53;;;;;;;4.20;0.97;;;27.10;54.70;;;;;;5053884;28;20588;-71
2023/01/10 02:41:38;;;;;;;2.97;0.90;;;27.50;54.20;;;;;;5051253;28;20188;-71
2023/01/10 02:44:26;;;;;;;3.00;0.97;;;27.80;54.00;;;;;;5053539;28;20219;-69
2023/01/10 02:46:55;;;;;;;2.77;0.90;;;28.00;51.90;;;;;;5053478;28;20548;-70
2023/01/10 02:49:23;;;;;;;5.40;0.80;;;28.10;52.20;;;;;;5053163;28;20211;-68
2023/01/10 02:51:50;;;;;;;1.93;0.77;;;27.80;51.60;;;;;;5053495;28;20207;-69
2023/01/10 02:54:25;;;;;;;3.43;1.07;;;28.00;51.20;;;;;;5053100;28;20274;-70
2023/01/10 02:57:11;;;;;;;2.53;0.90;;;27.60;52.30;;;;;;5053225;28;20597;-69
2023/01/10 02:59:47;;;;;;;1.77;0.90;;;27.90;51.90;;;;;;5053549;28;20580;-70
2023/01/10 03:02:20;;;;;;;6.63;1.10;;;27.80;51.80;;;;;;5053145;28;20171;-70
2023/01/10 03:05:07;;;;;;;3.30;1.10;;;27.40;52.80;;;;;;5053242;28;20266;-70
2023/01/10 03:07:50;;;;;;;3.33;0.80;;;27.60;51.80;;;;;;5047760;28;20202;-71
2023/01/10 03:10:25;;;;;;;2.60;0.80;;;27.90;51.80;;;;;;5049601;28;20639;-70
2023/01/10 03:13:12;;;;;;;2.97;0.83;;;28.10;50.60;;;;;;5051055;28;20211;-70
2023/01/10 03:15:41;;;;;;;2.93;0.80;;;27.70;51.40;;;;;;5050662;28;20199;-70
2023/01/10 03:18:17;;;;;;;2.70;0.80;;;27.80;50.60;;;;;;5053358;28;20743;-69
2023/01/10 03:20:48;;;;;;;3.40;1.00;;;28.10;49.70;;;;;;5052661;28;20366;-71
2023/01/10 03:23:17;;;;;;;3.47;0.90;;;27.70;51.00;;;;;;5052526;28;20180;-71
2023/01/10 03:25:47;;;;;;;2.60;1.10;;;27.80;51.10;;;;;;5049217;28;20187;-71
2023/01/10 03:28:35;;;;;;;3.03;1.03;;;28.20;50.10;;;;;;5053844;28;20184;-71
2023/01/10 03:31:09;;;;;;;2.07;0.90;;;28.30;49.80;;;;;;5051360;28;20546;-70
2023/01/10 03:33:38;;;;;;;1.60;0.73;;;28.50;49.00;;;;;;5053378;28;20663;-69
2023/01/10 03:36:32;;;;;;;3.37;1.10;;;28.80;48.40;;;;;;5054058;28;20669;-70
2023/01/10 03:39:10;;;;;;;4.17;1.00;;;28.80;47.40;;;;;;5052047;28;20211;-70
2023/01/10 03:41:59;;;;;;;1.63;0.90;;;28.60;48.30;;;;;;5052479;28;20237;-69
2023/01/10 03:44:45;;;;;;;2.97;0.80;;;28.80;47.20;;;;;;5052351;28;20192;-70
2023/01/10 03:47:31;;;;;;;2.30;0.90;;;28.60;46.50;;;;;;5047745;28;20215;-70
2023/01/10 03:50:12;;;;;;;3.78;0.93;;;29.40;45.50;;;;;;5050718;28;20227;-70
2023/01/10 03:52:42;;;;;;;2.43;0.73;;;28.60;46.80;;;;;;5052143;28;20676;-69
2023/01/10 03:55:12;;;;;;;3.13;0.70;;;28.80;47.40;;;;;;5051799;28;20180;-73
2023/01/10 03:57:44;;;;;;;3.37;1.07;;;29.30;45.50;;;;;;5052208;28;20184;-71
2023/01/10 04:00:13;;;;;;;1.27;0.77;;;29.30;44.70;;;;;;5044675;28;20191;-71
2023/01/10 04:02:40;;;;;;;6.25;0.90;;;29.10;45.60;;;;;;5050938;28;20179;-71
2023/01/10 04:05:08;;;;;;;2.80;0.83;;;29.40;45.20;;;;;;5051522;28;20278;-70
2023/01/10 04:07:36;;;;;;;2.30;0.70;;;29.30;45.10;;;;;;5050967;28;20176;-70
2023/01/10 04:10:05;;;;;;;1.27;0.60;;;29.40;45.10;;;;;;5047396;28;20548;-71
2023/01/10 04:12:32;;;;;;;1.70;0.80;;;29.50;44.40;;;;;;5043947;28;20358;-69
2023/01/10 04:15:00;;;;;;;2.47;0.63;;;29.60;44.70;;;;;;5049625;28;20663;-72
2023/01/10 04:17:27;;;;;;;3.03;0.80;;;29.70;44.90;;;;;;5049607;28;20206;-70
2023/01/10 04:19:55;;;;;;;3.92;1.00;;;28.90;45.70;;;;;;5051911;28;20708;-71
2023/01/10 04:22:22;;;;;;;1.00;0.80;;;29.30;45.40;;;;;;5051776;28;20186;-70
2023/01/10 04:24:53;;;;;;;2.95;1.10;;;28.70;46.40;;;;;;5051868;28;20563;-71
2023/01/10 04:27:21;;;;;;;2.08;0.65;;;28.80;47.00;;;;;;5051033;28;20666;-70
2023/01/10 04:29:48;;;;;;;3.73;0.80;;;28.40;47.70;;;;;;5051074;28;20238;-70
2023/01/10 04:32:15;;;;;;;1.98;1.00;;;28.30;48.10;;;;;;5051692;28;20204;-69
2023/01/10 04:34:43;;;;;;;4.53;1.03;;;28.30;48.40;;;;;;5050703;28;20195;-70
2023/01/10 04:37:11;;;;;;;4.77;1.00;;;28.50;47.80;;;;;;5043966;28;20651;-70
2023/01/10 04:39:38;;;;;;;2.37;1.13;;;27.90;49.10;;;;;;5049890;28;20222;-69
2023/01/10 04:42:05;;;;;;;2.20;0.80;;;28.10;49.80;;;;;;5054930;28;20590;-70
2023/01/10 04:44:33;;;;;;;3.73;1.00;;;28.80;47.80;;;;;;5057592;28;20183;-70
2023/01/10 04:47:00;;;;;;;6.17;1.10;;;28.80;47.80;;;;;;5052707;28;20593;-70
2023/01/10 04:49:27;;;;;;;2.35;0.88;;;28.70;48.10;;;;;;5051396;28;20184;-69
2023/01/10 04:51:55;;;;;;;2.03;0.90;;;29.60;46.40;;;;;;5044489;28;20219;-72
2023/01/10 04:54:22;;;;;;;3.33;1.00;;;30.10;44.80;;;;;;5051727;28;20199;-71
2023/01/10 04:56:50;;;;;;;2.73;0.90;;;29.30;47.20;;;;;;5050776;28;20234;-70
2023/01/10 04:59:18;;;;;;;2.63;1.08;;;29.20;47.50;;;;;;5054509;28;20180;-68
2023/01/10 05:01:45;;;;;;;4.60;1.13;;;29.10;47.50;;;;;;5053550;28;20690;-70
2023/01/10 05:04:12;;;;;;;1.50;0.73;;;29.10;47.20;;;;;;5057158;28;20618;-68
2023/01/10 05:06:40;;;;;;;1.45;0.60;;;29.40;46.60;;;;;;5051086;28;20172;-73
2023/01/10 05:09:08;;;;;;;3.28;0.90;;;28.90;47.70;;;;;;5046591;28;20188;-70
2023/01/10 05:11:35;;;;;;;2.58;0.95;;;30.00;45.40;;;;;;5052594;28;20212;-71
2023/01/10 05:14:03;;;;;;;2.72;1.05;;;30.50;43.50;;;;;;5050072;28;20180;-71
2023/01/10 05:16:30;;;;;;;3.22;0.90;;;30.40;44.20;;;;;;5057265;28;20180;-71
2023/01/10 05:18:58;;;;;;;2.90;0.80;;;29.90;45.10;;;;;;5052288;28;20211;-72
2023/01/10 05:21:25;;;;;;;1.88;0.90;;;30.10;44.90;;;;;;5050872;28;20190;-73
2023/01/10 05:23:52;;;;;;;1.48;0.60;;;30.80;43.70;;;;;;5057238;28;20191;-71
2023/01/10 05:26:22;;;;;;;1.63;0.50;;;30.80;44.00;;;;;;5049734;28;20179;-70
2023/01/10 05:28:50;;;;;;;2.75;0.98;;;30.00;45.40;;;;;;5046606;28;20176;-72
2023/01/10 05:31:19;;;;;;;4.63;1.10;;;29.00;47.40;;;;;;5055609;28;20260;-73
2023/01/10 05:33:51;;;;;;;3.03;0.60;;;29.30;47.10;;;;;;5054779;28;20183;-72
2023/01/10 05:36:19;;;;;;;4.45;1.00;;;29.00;47.00;;;;;;5053918;28;20195;-69
2023/01/10 05:38:46;;;;;;;1.20;0.50;;;29.60;45.70;;;;;;5048616;28;20211;-70
2023/01/10 05:41:14;;;;;;;5.85;0.80;;;30.00;44.90;;;;;;5057888;28;20577;-70
2023/01/10 05:43:41;;;;;;;2.80;0.70;;;30.10;44.10;;;;;;5057795;28;20168;-71
2023/01/10 05:46:09;;;;;;;2.53;0.65;;;29.80;45.10;;;;;;5061429;28;20188;-71
2023/01/10 05:48:36;;;;;;;4.38;0.75;;;30.50;44.10;;;;;;5059452;28;20191;-72
2023/01/10 05:51:04;;;;;;;1.55;0.55;;;30.20;44.60;;;;;;5061556;28;20357;-70
2023/01/10 05:53:31;;;;;;;1.52;0.80;;;30.90;43.00;;;;;;5055564;28;20302;-71
2023/01/10 05:56:01;;;;;;;3.65;1.00;;;30.10;44.10;;;;;;5054284;28;20180;-71
2023/01/10 05:58:29;;;;;;;1.77;0.60;;;30.70;43.60;;;;;;5036506;28;20586;-72
2023/01/10 06:00:57;;;;;;;2.85;0.80;;;30.30;43.90;;;;;;5056168;28;20351;-69
2023/01/10 06:03:25;;;;;;;3.30;0.57;;;30.90;42.80;;;;;;5056088;28;20172;-71
2023/01/10 06:05:56;;;;;;;4.10;0.60;;;31.30;41.60;;;;;;5061278;28;20183;-71
2023/01/10 06:08:24;;;;;;;4.20;0.75;;;31.40;40.90;;;;;;5051392;28;20259;-72
2023/01/10 06:10:51;;;;;;;2.10;0.80;;;29.90;44.00;;;;;;5059185;28;20589;-74
2023/01/10 06:13:19;;;;;;;1.70;0.75;;;29.30;44.70;;;;;;5057418;28;20211;-73
2023/01/10 06:15:47;;;;;;;2.50;0.80;;;29.40;43.70;;;;;;5056542;28;20584;-72
2023/01/10 06:18:15;;;;;;;2.20;0.68;;;28.90;44.30;;;;;;5053561;28;20180;-72
2023/01/10 06:20:44;;;;;;;2.75;0.82;;;30.40;41.90;;;;;;5053602;28;20254;-72
2023/01/10 06:23:11;;;;;;;1.67;0.70;;;31.00;40.70;;;;;;5050720;28;20199;-72
2023/01/10 06:25:40;;;;;;;2.67;0.70;;;30.70;40.80;;;;;;5057677;28;20176;-70
2023/01/10 06:28:09;;;;;;;1.80;0.52;;;30.50;41.70;;;;;;5052325;28;20211;-71
2023/01/10 06:30:37;;;;;;;1.42;0.68;;;30.90;41.70;;;;;;5053318;28;20176;-70
2023/01/10 06:33:07;;;;;;;1.60;0.70;;;31.50;40.40;;;;;;5056620;28;20636;-71
2023/01/10 06:35:35;;;;;;;3.72;1.00;;;31.60;40.80;;;;;;5055164;28;20230;-70
2023/01/10 06:38:03;;;;;;;1.85;0.70;;;30.70;42.40;;;;;;5049780;28;20229;-71
2023/01/10 06:40:30;;;;;;;1.63;0.60;;;30.10;43.60;;;;;;5056051;28;20176;-71
2023/01/10 06:42:58;;;;;;;6.78;0.80;;;30.00;44.30;;;;;;5052852;28;20192;-72
2023/01/10 06:45:25;;;;;;;3.78;0.80;;;29.60;45.40;;;;;;5050788;28;20180;-70
2023/01/10 06:47:52;;;;;;;4.72;0.60;;;30.30;42.60;;;;;;5051248;28;20677;-67
2023/01/10 06:50:20;;;;;;;3.17;0.80;;;30.00;43.90;;;;;;5052302;28;20224;-70
2023/01/10 06:52:54;;;;;;;2.00;0.82;;;30.10;43.70;;;;;;5052008;28;20223;-70
2023/01/10 06:55:22;;;;;;;1.20;0.60;;;30.70;43.10;;;;;;5051498;28;20261;-70
2023/01/10 06:57:53;;;;;;;1.25;0.70;;;30.60;41.50;;;;;;5051968;28;20551;-73
2023/01/10 07:00:21;;;;;;;2.40;0.77;;;30.30;42.70;;;;;;5054085;28;20176;-70
2023/01/10 07:02:49;;;;;;;1.63;0.77;;;30.20;42.80;;;;;;5053030;28;20195;-72
2023/01/10 07:05:16;;;;;;;3.03;0.90;;;29.60;43.90;;;;;;5054853;28;20183;-71
2023/01/10 07:07:43;;;;;;;3.53;0.65;;;29.70;43.60;;;;;;5056829;28;20183;-72
2023/01/10 07:10:11;;;;;;;4.97;0.95;;;29.80;43.20;;;;;;5053958;28;20680;-72
2023/01/10 07:12:38;;;;;;;2.97;0.82;;;30.10;43.00;;;;;;5061983;28;20234;-72
2023/01/10 07:15:06;;;;;;;2.47;0.70;;;29.30;44.00;;;;;;5059390;28;20191;-73
2023/01/10 07:17:34;;;;;;;3.40;0.70;;;29.30;44.00;;;;;;5057391;28;20188;-70
2023/01/10 07:20:01;;;;;;;2.17;0.80;;;28.70;45.80;;;;;;5060256;28;20180;-71
2023/01/10 07:22:28;;;;;;;1.37;0.60;;;29.60;44.40;;;;;;5055897;28;20275;-70
2023/01/10 07:24:56;;;;;;;1.73;0.80;;;28.90;45.40;;;;;;5054356;28;20793;-69
2023/01/10 07:27:23;;;;;;;4.17;0.80;;;28.40;47.50;;;;;;5048227;28;20195;-71
2023/01/10 07:29:50;;;;;;;1.97;0.70;;;27.10;50.20;;;;;;5056503;28;20188;-71
2023/01/10 07:32:18;;;;;;;2.93;0.93;;;26.40;51.60;;;;;;5047751;28;20254;-72
2023/01/10 07:34:45;;;;;;;1.87;0.83;;;26.20;52.90;;;;;;5055999;28;20563;-70
2023/01/10 07:37:13;;;;;;;1.93;0.70;;;26.00;53.80;;;;;;5053136;28;20188;-70
2023/01/10 07:39:41;;;;;;;4.63;1.00;;;26.30;53.10;;;;;;5052619;28;20184;-73
2023/01/10 07:42:11;;;;;;;2.70;0.83;;;25.80;53.20;;;;;;5052408;28;20208;-72
2023/01/10 07:44:39;;;;;;;1.63;0.70;;;25.80;54.50;;;;;;5047425;28;20245;-71
2023/01/10 07:47:06;;;;;;;2.50;0.80;;;25.80;54.00;;;;;;5052042;28;20249;-71
2023/01/10 07:49:33;;;;;;;1.90;0.80;;;25.80;54.60;;;;;;5052954;28;20212;-73
2023/01/10 07:52:01;;;;;;;1.53;0.80;;;25.60;54.70;;;;;;5054559;28;20299;-72
2023/01/10 07:54:28;;;;;;;3.67;1.23;;;25.40;55.60;;;;;;5054909;28;20526;-73
2023/01/10 07:56:55;;;;;;;2.33;1.00;;;25.60;55.10;;;;;;5048713;28;20176;-72
2023/01/10 07:59:23;;;;;;;3.90;0.93;;;25.60;55.20;;;;;;5052108;28;20222;-75
2023/01/10 08:01:50;;;;;;;4.63;0.90;;;25.50;55.30;;;;;;5050864;28;20703;-73
2023/01/10 08:04:18;;;;;;;4.73;1.20;;;25.30;56.30;;;;;;5051712;28;20270;-70
2023/01/10 08:06:45;;;;;;;3.70;0.77;;;25.60;55.60;;;;;;5050991;28;20184;-70
2023/01/10 08:09:12;;;;;;;5.77;1.10;;;25.30;56.90;;;;;;5051529;28;20237;-70
2023/01/10 08:11:41;;;;;;;2.90;1.00;;;24.70;58.30;;;;;;5049984;28;20176;-71
2023/01/10 08:14:08;;;;;;;4.37;1.40;;;24.60;59.10;;;;;;5052144;28;20219;-71
2023/01/10 08:16:35;;;;;;;4.27;1.20;;;24.50;59.10;;;;;;5051431;28;20187;-71
2023/01/10 08:19:03;;;;;;;3.73;1.10;;;24.50;59.30;;;;;;5050118;28;20286;-72
2023/01/10 08:21:30;;;;;;;4.83;1.00;;;24.30;59.70;;;;;;5046719;28;20180;-70
2023/01/10 08:23:58;;;;;;;3.93;0.90;;;24.20;60.40;;;;;;5049922;28;20670;-74
2023/01/10 08:26:25;;;;;;;2.50;0.83;;;24.10;60.00;;;;;;5050648;28;20638;-71
2023/01/10 08:28:52;;;;;;;5.60;1.03;;;24.20;59.70;;;;;;5051042;28;20184;-71
2023/01/10 08:31:20;;;;;;;6.33;1.00;;;24.00;59.70;;;;;;5050568;28;20735;-69
2023/01/10 08:33:47;;;;;;;1.33;0.93;;;24.00;60.20;;;;;;5050640;28;20184;-73
2023/01/10 08:36:18;;;;;;;3.00;1.20;;;23.90;60.00;;;;;;5049940;28;21904;-71
2023/01/10 08:38:46;;;;;;;4.20;0.80;;;23.90;60.10;;;;;;5047893;28;20202;-72
2023/01/10 08:41:14;;;;;;;3.17;1.20;;;23.80;60.40;;;;;;5050131;28;20180;-74
2023/01/10 08:43:41;;;;;;;2.47;1.23;;;23.70;60.50;;;;;;5051572;28;20274;-70
2023/01/10 08:46:09;;;;;;;3.40;1.20;;;23.50;61.20;;;;;;5049880;28;20176;-74
2023/01/10 08:48:36;;;;;;;4.80;1.23;;;23.40;61.60;;;;;;5051102;28;20184;-72
2023/01/10 08:51:10;;;;;;;2.57;1.00;;;23.50;61.50;;;;;;5050241;28;20284;-71
2023/01/10 08:53:39;;;;;;;3.90;1.10;;;23.30;61.90;;;;;;5049660;28;20601;-72
2023/01/10 08:56:07;;;;;;;3.13;0.83;;;23.20;62.70;;;;;;5048492;28;20673;-72
2023/01/10 08:58:35;;;;;;;4.87;0.80;;;23.20;63.00;;;;;;5050994;28;20255;-72
2023/01/10 09:01:07;;;;;;;4.07;1.10;;;23.20;63.10;;;;;;5051606;28;20179;-70
2023/01/10 09:03:34;;;;;;;4.33;1.03;;;23.20;63.10;;;;;;5053351;28;20183;-69
2023/01/10 09:06:02;;;;;;;7.17;1.30;;;23.10;62.80;;;;;;5054814;28;20186;-69
2023/01/10 09:08:29;;;;;;;4.60;0.97;;;23.10;63.20;;;;;;5054206;28;20558;-69
2023/01/10 09:10:59;;;;;;;3.03;0.93;;;23.00;63.60;;;;;;5055100;28;20187;-69
2023/01/10 09:13:27;;;;;;;4.47;1.00;;;23.00;63.80;;;;;;5052885;28;20696;-68
2023/01/10 09:15:55;;;;;;;6.27;1.00;;;23.10;63.70;;;;;;5053605;28;20274;-71
2023/01/10 09:18:23;;;;;;;2.50;1.20;;;23.20;63.40;;;;;;5054740;28;20262;-68
2023/01/10 09:20:51;;;;;;;5.33;1.27;;;23.20;63.50;;;;;;5054090;28;20179;-69
2023/01/10 09:23:21;;;;;;;4.23;1.10;;;23.20;64.20;;;;;;5049739;28;20180;-72
2023/01/10 09:25:51;;;;;;;7.00;1.30;;;23.10;64.50;;;;;;5053644;28;20180;-68
2023/01/10 09:28:19;;;;;;;3.40;1.00;;;23.20;64.90;;;;;;5053969;28;20196;-71
2023/01/10 09:30:47;;;;;;;4.13;1.03;;;23.00;64.90;;;;;;5054177;28;20180;-73
2023/01/10 09:33:15;;;;;;;2.97;0.93;;;23.00;64.90;;;;;;5056566;28;20302;-69
2023/01/10 09:35:42;;;;;;;4.43;0.90;;;23.00;65.10;;;;;;5054902;28;20241;-71
2023/01/10 09:38:16;;;;;;;4.13;1.20;;;22.90;65.30;;;;;;5052856;28;20273;-68
2023/01/10 09:41:07;;;;;;;5.23;1.30;;;22.80;65.60;;;;;;5054745;28;20233;-68
2023/01/10 09:43:52;;;;;;;4.63;1.50;;;22.70;65.50;;;;;;5053972;28;20176;-72
2023/01/10 09:46:37;;;;;;;2.93;1.17;;;22.70;65.50;;;;;;5054191;28;20820;-69
2023/01/10 09:49:40;;;;;;;4.10;1.10;;;22.60;65.80;;;;;;5051579;28;20195;-70
2023/01/10 09:52:21;;;;;;;4.93;1.10;;;22.50;66.10;;;;;;5053031;28;20219;-69
2023/01/10 09:54:52;;;;;;;5.67;1.20;;;22.60;66.00;;;;;;5049256;28;20605;-70
2023/01/10 09:57:22;;;;;;;5.47;1.17;;;22.60;66.20;;;;;;5054171;28;20180;-71
2023/01/10 09:59:52;;;;;;;4.53;1.20;;;22.70;66.00;;;;;;5053403;28;20169;-71
2023/01/10 10:02:34;;;;;;;4.37;1.37;;;22.60;66.10;;;;;;5052189;28;20533;-71
2023/01/10 10:05:08;;;;;;;6.23;1.10;;;22.70;66.10;;;;;;5053984;28;20261;-70
2023/01/10 10:07:35;;;;;;;3.47;1.07;;;22.60;66.60;;;;;;5053312;28;20199;-69
2023/01/10 10:10:11;;;;;;;5.43;1.20;;;22.70;66.50;;;;;;5052965;28;20218;-71
2023/01/10 10:12:59;;;;;;;3.53;1.20;;;22.70;66.40;;;;;;5050831;28;20211;-73
2023/01/10 10:15:30;;;;;;;2.47;0.93;;;22.60;66.10;;;;;;5053017;28;20180;-70
2023/01/10 10:18:03;;;;;;;4.23;1.20;;;22.60;66.20;;;;;;5053695;28;20273;-69
2023/01/10 10:20:39;;;;;;;3.87;1.50;;;22.60;66.30;;;;;;5053747;28;20180;-72
2023/01/10 10:23:18;;;;;;;4.73;1.30;;;22.50;66.50;;;;;;5051856;28;20662;-72
2023/01/10 10:25:48;;;;;;;2.83;1.00;;;22.60;66.70;;;;;;5051681;28;20176;-70
2023/01/10 10:28:30;;;;;;;5.17;1.20;;;22.50;66.50;;;;;;5050517;28;20263;-70
2023/01/10 10:31:23;;;;;;;5.70;1.20;;;22.40;66.60;;;;;;5052567;28;20183;-69
2023/01/10 10:33:56;;;;;;;2.60;0.97;;;22.30;66.60;;;;;;5054208;28;20234;-68
2023/01/10 10:36:47;;;;;;;9.97;1.20;;;22.30;66.90;;;;;;5054382;28;20618;-70
2023/01/10 10:39:30;;;;;;;2.70;1.30;;;22.30;66.80;;;;;;5048889;28;20180;-71
2023/01/10 10:41:58;;;;;;;4.93;0.93;;;22.20;66.80;;;;;;5053406;28;20189;-71
2023/01/10 10:45:06;;;;;;;3.90;1.30;;;22.10;66.80;;;;;;5053843;28;20191;-70
2023/01/10 10:47:36;;;;;;;4.70;1.20;;;22.20;66.80;;;;;;5051905;28;20531;-70
2023/01/10 10:50:18;;;;;;;4.40;1.20;;;22.20;66.70;;;;;;5050648;28;20219;-70
2023/01/10 10:52:46;;;;;;;6.63;1.27;;;22.10;67.20;;;;;;5050349;28;20199;-72
2023/01/10 10:55:16;;;;;;;3.30;1.07;;;22.20;67.20;;;;;;5055172;28;20279;-69
2023/01/10 10:57:46;;;;;;;2.07;1.10;;;22.10;67.40;;;;;;5054533;28;20183;-74
2023/01/10 11:00:21;;;;;;;4.80;1.27;;;22.10;67.40;;;;;;5054145;28;20184;-72
2023/01/10 11:02:57;;;;;;;3.53;1.03;;;22.10;67.30;;;;;;5052743;28;20546;-74
2023/01/10 11:05:35;;;;;;;3.37;1.33;;;22.10;67.40;;;;;;5057484;28;20206;-70
2023/01/10 11:08:09;;;;;;;6.07;1.20;;;22.20;67.40;;;;;;5057261;28;20666;-70
2023/01/10 11:10:38;;;;;;;11.33;1.50;;;22.30;66.90;;;;;;5051716;28;20229;-72
2023/01/10 11:13:17;;;;;;;5.33;1.10;;;22.30;67.10;;;;;;5058832;28;20254;-74
2023/01/10 11:15:46;;;;;;;6.53;1.47;;;22.40;66.80;;;;;;5050962;28;20199;-73
2023/01/10 11:18:19;;;;;;;5.27;1.40;;;22.50;66.20;;;;;;5064405;28;20270;-71
2023/01/10 11:20:57;;;;;;;5.30;1.20;;;22.50;66.20;;;;;;5051460;28;20191;-70
2023/01/10 11:23:43;;;;;;;5.80;1.27;;;22.50;66.10;;;;;;5051267;28;20188;-70
2023/01/10 11:26:25;;;;;;;2.87;1.10;;;22.50;66.20;;;;;;5046487;28;20191;-72
2023/01/10 11:29:23;;;;;;;3.33;1.00;;;22.50;65.70;;;;;;5052896;28;20183;-70
2023/01/10 11:31:52;;;;;;;6.03;1.33;;;22.50;65.80;;;;;;5047825;28;20678;-73
2023/01/10 11:34:28;;;;;;;5.30;1.30;;;22.50;65.90;;;;;;5052750;28;20642;-72
2023/01/10 11:37:17;;;;;;;3.93;1.10;;;22.40;65.70;;;;;;5052688;28;20192;-68
2023/01/10 11:39:44;;;;;;;5.50;1.20;;;22.30;65.40;;;;;;5046487;28;20554;-72
2023/01/10 11:42:31;;;;;;;1.03;0.80;;;22.30;65.40;;;;;;5051826;28;20316;-73
2023/01/10 11:45:17;;;;;;;4.10;1.00;;;22.30;65.40;;;;;;5052446;28;20533;-74
2023/01/10 11:48:27;;;;;;;4.80;1.23;;;22.40;65.00;;;;;;5053174;28;20183;-73
2023/01/10 11:50:55;;;;;;;7.83;1.13;;;22.30;65.10;;;;;;5016286;28;20265;-72
2023/01/10 11:53:43;;;;;;;2.40;0.97;;;22.40;64.70;;;;;;5051842;28;20215;-71
2023/01/10 11:56:21;;;;;;;6.00;0.93;;;22.40;64.40;;;;;;5044442;28;20188;-71
2023/01/10 11:58:52;;;;;;;5.83;1.33;;;22.40;64.20;;;;;;5051329;28;20200;-74
2023/01/10 12:01:38;;;;;;;4.10;1.07;;;22.50;64.40;;;;;;5051521;28;20255;-73
2023/01/10 12:04:06;;;;;;;3.43;1.23;;;22.50;64.00;;;;;;5058460;28;20256;-71
2023/01/10 12:06:34;;;;;;;2.40;0.83;;;22.50;63.70;;;;;;5060104;28;20262;-73
2023/01/10 12:09:02;;;;;;;4.00;1.20;;;22.50;63.50;;;;;;5058468;28;20210;-73
2023/01/10 12:11:34;;;;;;;3.47;1.07;;;22.50;63.40;;;;;;5055086;28;20587;-71
2023/01/10 12:14:02;;;;;;;2.17;1.00;;;22.60;63.60;;;;;;5052886;28;20187;-72
2023/01/10 12:16:34;;;;;;;2.57;0.70;;;22.60;63.20;;;;;;5052155;28;20267;-72
2023/01/10 12:19:03;;;;;;;3.47;0.90;;;22.60;63.70;;;;;;5050354;28;20183;-69
2023/01/10 12:21:41;;;;;;;3.90;0.80;;;22.50;64.00;;;;;;5049353;28;20255;-69
2023/01/10 12:24:12;;;;;;;4.30;1.10;;;22.50;64.80;;;;;;5050842;28;20190;-71
2023/01/10 12:26:40;;;;;;;3.03;1.07;;;22.50;65.00;;;;;;5053511;28;20707;-71
2023/01/10 12:29:14;;;;;;;3.97;1.10;;;22.50;65.00;;;;;;5050222;28;20180;-69
2023/01/10 12:31:41;;;;;;;2.00;1.00;;;22.50;64.70;;;;;;5055528;28;20258;-71
2023/01/10 12:34:48;;;;;;;2.30;1.00;;;22.50;64.50;;;;;;5051750;28;20226;-70
2023/01/10 12:37:23;;;;;;;3.63;1.10;;;22.50;64.50;;;;;;5056681;28;20192;-71
2023/01/10 12:40:03;;;;;;;1.33;0.70;;;22.40;64.30;;;;;;5053551;28;20211;-68
2023/01/10 12:45:54;;;;;;;3.53;0.80;;;22.50;64.10;;;;;;5056117;28;20597;-71
2023/01/10 12:48:52;;;;;;;2.60;0.90;;;22.60;64.40;;;;;;5055513;28;20164;-71
2023/01/10 12:51:23;;;;;;;5.80;1.13;;;22.50;64.90;;;;;;5055649;28;20267;-73
2023/01/10 12:54:09;;;;;;;5.20;1.00;;;22.50;65.20;;;;;;5055723;28;20219;-70
2023/01/10 12:56:37;;;;;;;3.67;1.10;;;22.50;65.50;;;;;;5056182;28;20180;-69
2023/01/10 12:59:24;;;;;;;4.97;1.13;;;22.50;65.70;;;;;;5055734;28;20639;-71
2023/01/10 13:01:55;;;;;;;1.87;0.80;;;22.60;65.70;;;;;;5055322;28;20664;-69
2023/01/10 13:04:25;;;;;;;3.27;1.20;;;22.50;66.00;;;;;;5055499;28;20184;-70
2023/01/10 13:06:54;;;;;;;7.13;1.20;;;22.50;66.50;;;;;;5055568;28;20184;-70
2023/01/10 13:09:27;;;;;;;2.97;0.73;;;22.50;66.80;;;;;;5055543;28;20183;-69
2023/01/10 13:12:16;;;;;;;1.43;0.90;;;22.50;66.70;;;;;;5052268;28;20202;-72
2023/01/10 13:15:12;;;;;;;2.37;0.80;;;22.50;66.80;;;;;;5048594;28;20191;-69
2023/01/10 13:17:50;;;;;;;3.17;0.93;;;22.40;67.10;;;;;;5051769;28;20262;-68
2023/01/10 13:20:21;;;;;;;1.80;0.93;;;22.40;67.20;;;;;;5055230;28;20192;-69
2023/01/10 13:22:59;;;;;;;5.30;1.30;;;22.40;67.30;;;;;;5055295;28;20183;-69
2023/01/10 13:25:26;;;;;;;4.43;1.07;;;22.40;67.40;;;;;;5055109;28;20688;-69